sensor_id;sensor_type;location;lat;lon;timestamp;temperature;humidity
11239;DHT22;5677;48.488;13.436;2023-10-19T00:01:55;14.20;99.90
11239;DHT22;5677;48.488;13.436;2023-10-19T00:04:23;14.20;99.50
11239;DHT22;5677;48.488;13.436;2023-10-19T00:06:49;14.20;98.90
11239;DHT22;5677;48.488;13.436;2023-10-19T00:09:16;14.20;98.70
11239;DHT22;5677;48.488;13.436;2023-10-19T00:11:42;14.20;98.80
11239;DHT22;5677;48.488;13.436;2023-10-19T00:14:10;14.20;98.70
11239;DHT22;5677;48.488;13.436;2023-10-19T00:16:42;14.20;98.50
11239;DHT22;5677;48.488;13.436;2023-10-19T00:19:10;14.20;98.40
11239;DHT22;5677;48.488;13.436;2023-10-19T00:21:44;14.20;98.30
11239;DHT22;5677;48.488;13.436;2023-10-19T00:24:16;14.20;98.20
11239;DHT22;5677;48.488;13.436;2023-10-19T00:26:45;14.20;98.00
11239;DHT22;5677;48.488;13.436;2023-10-19T00:29:12;14.20;98.00
11239;DHT22;5677;48.488;13.436;2023-10-19T00:31:56;14.20;97.90
11239;DHT22;5677;48.488;13.436;2023-10-19T00:34:23;14.20;97.80
11239;DHT22;5677;48.488;13.436;2023-10-19T00:36:50;14.20;97.70
11239;DHT22;5677;48.488;13.436;2023-10-19T00:39:17;14.20;97.60
11239;DHT22;5677;48.488;13.436;2023-10-19T00:41:47;14.20;97.60
11239;DHT22;5677;48.488;13.436;2023-10-19T00:44:17;14.20;97.50
11239;DHT22;5677;48.488;13.436;2023-10-19T00:46:48;14.20;97.60
11239;DHT22;5677;48.488;13.436;2023-10-19T00:49:25;14.20;97.40
11239;DHT22;5677;48.488;13.436;2023-10-19T00:51:55;14.20;97.50
11239;DHT22;5677;48.488;13.436;2023-10-19T00:54:30;14.20;97.40
11239;DHT22;5677;48.488;13.436;2023-10-19T00:56:59;14.20;97.60
11239;DHT22;5677;48.488;13.436;2023-10-19T00:59:31;14.20;97.60
11239;DHT22;5677;48.488;13.436;2023-10-19T01:02:01;14.20;97.50
11239;DHT22;5677;48.488;13.436;2023-10-19T01:04:42;14.20;97.50
11239;DHT22;5677;48.488;13.436;2023-10-19T01:07:10;14.20;97.50
11239;DHT22;5677;48.488;13.436;2023-10-19T01:09:41;14.20;97.30
11239;DHT22;5677;48.488;13.436;2023-10-19T01:12:10;14.20;97.50
11239;DHT22;5677;48.488;13.436;2023-10-19T01:15:08;14.20;97.70
11239;DHT22;5677;48.488;13.436;2023-10-19T01:17:43;14.20;97.70
11239;DHT22;5677;48.488;13.436;2023-10-19T01:20:11;14.20;97.50
11239;DHT22;5677;48.488;13.436;2023-10-19T01:22:53;14.20;97.50
11239;DHT22;5677;48.488;13.436;2023-10-19T01:25:32;14.20;97.50
11239;DHT22;5677;48.488;13.436;2023-10-19T01:28:06;14.20;97.50
11239;DHT22;5677;48.488;13.436;2023-10-19T01:30:34;14.20;97.50
11239;DHT22;5677;48.488;13.436;2023-10-19T01:33:01;14.20;97.50
11239;DHT22;5677;48.488;13.436;2023-10-19T01:35:29;14.20;97.50
11239;DHT22;5677;48.488;13.436;2023-10-19T01:38:18;14.20;97.60
11239;DHT22;5677;48.488;13.436;2023-10-19T01:40:44;14.20;97.60
11239;DHT22;5677;48.488;13.436;2023-10-19T01:43:14;14.20;97.70
11239;DHT22;5677;48.488;13.436;2023-10-19T01:45:46;14.20;97.80
11239;DHT22;5677;48.488;13.436;2023-10-19T01:48:13;14.20;97.80
11239;DHT22;5677;48.488;13.436;2023-10-19T01:50:40;14.10;98.00
11239;DHT22;5677;48.488;13.436;2023-10-19T01:53:07;14.20;98.30
11239;DHT22;5677;48.488;13.436;2023-10-19T01:55:42;14.10;98.50
11239;DHT22;5677;48.488;13.436;2023-10-19T01:58:09;14.10;98.90
11239;DHT22;5677;48.488;13.436;2023-10-19T02:00:35;14.10;99.20
11239;DHT22;5677;48.488;13.436;2023-10-19T02:03:06;14.20;99.60
11239;DHT22;5677;48.488;13.436;2023-10-19T02:05:32;14.20;99.90
11239;DHT22;5677;48.488;13.436;2023-10-19T02:08:05;14.20;99.90
11239;DHT22;5677;48.488;13.436;2023-10-19T02:10:33;14.10;99.90
11239;DHT22;5677;48.488;13.436;2023-10-19T02:13:01;14.10;99.90
11239;DHT22;5677;48.488;13.436;2023-10-19T02:15:32;14.20;99.90
11239;DHT22;5677;48.488;13.436;2023-10-19T02:18:00;14.20;99.90
11239;DHT22;5677;48.488;13.436;2023-10-19T02:20:27;14.10;99.90
11239;DHT22;5677;48.488;13.436;2023-10-19T02:22:54;14.10;99.90
11239;DHT22;5677;48.488;13.436;2023-10-19T02:25:20;14.20;99.90
11239;DHT22;5677;48.488;13.436;2023-10-19T02:27:47;14.10;99.90
11239;DHT22;5677;48.488;13.436;2023-10-19T02:30:15;14.20;99.90
11239;DHT22;5677;48.488;13.436;2023-10-19T02:32:43;14.10;99.90
11239;DHT22;5677;48.488;13.436;2023-10-19T02:35:09;14.10;99.90
11239;DHT22;5677;48.488;13.436;2023-10-19T02:37:36;14.10;99.90
11239;DHT22;5677;48.488;13.436;2023-10-19T02:40:05;14.10;99.90
11239;DHT22;5677;48.488;13.436;2023-10-19T02:42:38;14.10;99.90
11239;DHT22;5677;48.488;13.436;2023-10-19T02:45:04;14.10;97.00
11239;DHT22;5677;48.488;13.436;2023-10-19T02:47:33;14.10;96.50
11239;DHT22;5677;48.488;13.436;2023-10-19T02:50:00;14.10;96.30
11239;DHT22;5677;48.488;13.436;2023-10-19T02:52:26;14.10;96.30
11239;DHT22;5677;48.488;13.436;2023-10-19T02:54:52;14.10;96.20
11239;DHT22;5677;48.488;13.436;2023-10-19T02:57:22;14.10;96.20
11239;DHT22;5677;48.488;13.436;2023-10-19T02:59:48;14.10;96.20
11239;DHT22;5677;48.488;13.436;2023-10-19T03:02:16;14.10;96.30
11239;DHT22;5677;48.488;13.436;2023-10-19T03:04:44;14.10;96.40
11239;DHT22;5677;48.488;13.436;2023-10-19T03:07:11;14.10;96.50
11239;DHT22;5677;48.488;13.436;2023-10-19T03:09:38;14.10;96.50
11239;DHT22;5677;48.488;13.436;2023-10-19T03:12:05;14.10;96.60
11239;DHT22;5677;48.488;13.436;2023-10-19T03:14:35;14.10;96.60
11239;DHT22;5677;48.488;13.436;2023-10-19T03:17:03;14.10;96.70
11239;DHT22;5677;48.488;13.436;2023-10-19T03:19:29;14.10;96.70
11239;DHT22;5677;48.488;13.436;2023-10-19T03:21:57;14.10;96.80
11239;DHT22;5677;48.488;13.436;2023-10-19T03:24:25;14.10;96.80
11239;DHT22;5677;48.488;13.436;2023-10-19T03:27:01;14.10;96.70
11239;DHT22;5677;48.488;13.436;2023-10-19T03:29:33;14.10;96.80
11239;DHT22;5677;48.488;13.436;2023-10-19T03:32:04;14.10;97.00
11239;DHT22;5677;48.488;13.436;2023-10-19T03:34:31;14.10;97.00
11239;DHT22;5677;48.488;13.436;2023-10-19T03:36:59;14.10;97.00
11239;DHT22;5677;48.488;13.436;2023-10-19T03:39:31;14.10;97.00
11239;DHT22;5677;48.488;13.436;2023-10-19T03:41:59;14.10;97.00
11239;DHT22;5677;48.488;13.436;2023-10-19T03:44:26;14.10;97.10
11239;DHT22;5677;48.488;13.436;2023-10-19T03:47:01;14.10;92.60
11239;DHT22;5677;48.488;13.436;2023-10-19T03:49:30;14.10;87.70
11239;DHT22;5677;48.488;13.436;2023-10-19T03:52:03;14.10;87.60
11239;DHT22;5677;48.488;13.436;2023-10-19T03:54:45;14.10;87.60
11239;DHT22;5677;48.488;13.436;2023-10-19T03:57:13;14.10;87.60
11239;DHT22;5677;48.488;13.436;2023-10-19T03:59:45;14.10;87.60
11239;DHT22;5677;48.488;13.436;2023-10-19T04:02:12;14.10;87.70
11239;DHT22;5677;48.488;13.436;2023-10-19T04:04:40;14.10;87.70
11239;DHT22;5677;48.488;13.436;2023-10-19T04:07:10;14.10;87.70
11239;DHT22;5677;48.488;13.436;2023-10-19T04:09:43;14.10;87.70
11239;DHT22;5677;48.488;13.436;2023-10-19T04:12:25;14.10;87.80
11239;DHT22;5677;48.488;13.436;2023-10-19T04:14:54;14.10;87.80
11239;DHT22;5677;48.488;13.436;2023-10-19T04:17:21;14.00;87.70
11239;DHT22;5677;48.488;13.436;2023-10-19T04:19:49;14.00;87.90
11239;DHT22;5677;48.488;13.436;2023-10-19T04:22:21;14.00;87.80
11239;DHT22;5677;48.488;13.436;2023-10-19T04:24:49;14.00;87.80
11239;DHT22;5677;48.488;13.436;2023-10-19T04:27:15;14.00;87.90
11239;DHT22;5677;48.488;13.436;2023-10-19T04:29:42;14.00;87.80
11239;DHT22;5677;48.488;13.436;2023-10-19T04:32:11;14.00;87.90
11239;DHT22;5677;48.488;13.436;2023-10-19T04:34:39;14.00;87.90
11239;DHT22;5677;48.488;13.436;2023-10-19T04:37:07;14.00;87.90
11239;DHT22;5677;48.488;13.436;2023-10-19T04:39:39;14.00;87.90
11239;DHT22;5677;48.488;13.436;2023-10-19T04:42:06;14.00;88.00
11239;DHT22;5677;48.488;13.436;2023-10-19T04:44:32;14.00;88.00
11239;DHT22;5677;48.488;13.436;2023-10-19T04:47:00;14.00;88.00
11239;DHT22;5677;48.488;13.436;2023-10-19T04:49:26;14.00;88.10
11239;DHT22;5677;48.488;13.436;2023-10-19T04:51:53;14.00;88.10
11239;DHT22;5677;48.488;13.436;2023-10-19T04:54:20;14.00;88.10
11239;DHT22;5677;48.488;13.436;2023-10-19T04:56:48;14.00;88.10
11239;DHT22;5677;48.488;13.436;2023-10-19T04:59:15;14.00;88.10
11239;DHT22;5677;48.488;13.436;2023-10-19T05:01:42;14.00;88.20
11239;DHT22;5677;48.488;13.436;2023-10-19T05:04:09;14.00;88.30
11239;DHT22;5677;48.488;13.436;2023-10-19T05:06:35;14.00;88.30
11239;DHT22;5677;48.488;13.436;2023-10-19T05:09:03;14.00;88.30
11239;DHT22;5677;48.488;13.436;2023-10-19T05:11:31;14.00;88.40
11239;DHT22;5677;48.488;13.436;2023-10-19T05:13:59;14.00;88.40
11239;DHT22;5677;48.488;13.436;2023-10-19T05:16:26;14.00;88.40
11239;DHT22;5677;48.488;13.436;2023-10-19T05:18:53;14.00;88.50
11239;DHT22;5677;48.488;13.436;2023-10-19T05:21:19;14.00;88.50
11239;DHT22;5677;48.488;13.436;2023-10-19T05:23:47;14.00;88.50
11239;DHT22;5677;48.488;13.436;2023-10-19T05:26:14;14.00;88.60
11239;DHT22;5677;48.488;13.436;2023-10-19T05:28:41;14.00;88.60
11239;DHT22;5677;48.488;13.436;2023-10-19T05:31:10;14.00;88.60
11239;DHT22;5677;48.488;13.436;2023-10-19T05:33:37;14.00;88.70
11239;DHT22;5677;48.488;13.436;2023-10-19T05:36:04;14.00;88.80
11239;DHT22;5677;48.488;13.436;2023-10-19T05:38:31;14.00;88.80
11239;DHT22;5677;48.488;13.436;2023-10-19T05:40:58;14.00;89.00
11239;DHT22;5677;48.488;13.436;2023-10-19T05:43:25;14.00;89.00
11239;DHT22;5677;48.488;13.436;2023-10-19T05:45:53;14.00;89.10
11239;DHT22;5677;48.488;13.436;2023-10-19T05:48:21;14.00;89.00
11239;DHT22;5677;48.488;13.436;2023-10-19T05:50:49;14.00;89.00
11239;DHT22;5677;48.488;13.436;2023-10-19T05:53:16;14.00;89.10
11239;DHT22;5677;48.488;13.436;2023-10-19T05:55:44;14.00;89.10
11239;DHT22;5677;48.488;13.436;2023-10-19T05:58:11;14.00;89.20
11239;DHT22;5677;48.488;13.436;2023-10-19T06:00:38;14.00;89.20
11239;DHT22;5677;48.488;13.436;2023-10-19T06:03:05;14.00;89.30
11239;DHT22;5677;48.488;13.436;2023-10-19T06:05:33;14.00;89.30
11239;DHT22;5677;48.488;13.436;2023-10-19T06:07:59;14.00;89.30
11239;DHT22;5677;48.488;13.436;2023-10-19T06:10:27;14.00;89.40
11239;DHT22;5677;48.488;13.436;2023-10-19T06:12:55;14.00;89.40
11239;DHT22;5677;48.488;13.436;2023-10-19T06:15:22;14.00;89.50
11239;DHT22;5677;48.488;13.436;2023-10-19T06:17:50;14.00;89.60
11239;DHT22;5677;48.488;13.436;2023-10-19T06:20:18;14.00;89.60
11239;DHT22;5677;48.488;13.436;2023-10-19T06:22:52;14.00;89.70
11239;DHT22;5677;48.488;13.436;2023-10-19T06:25:19;14.00;89.80
11239;DHT22;5677;48.488;13.436;2023-10-19T06:27:47;14.00;90.30
11239;DHT22;5677;48.488;13.436;2023-10-19T06:30:14;14.00;90.40
11239;DHT22;5677;48.488;13.436;2023-10-19T06:32:46;14.00;90.60
11239;DHT22;5677;48.488;13.436;2023-10-19T06:35:13;14.00;90.60
11239;DHT22;5677;48.488;13.436;2023-10-19T06:37:40;14.00;90.70
11239;DHT22;5677;48.488;13.436;2023-10-19T06:40:09;14.00;90.80
11239;DHT22;5677;48.488;13.436;2023-10-19T06:42:37;14.00;90.80
11239;DHT22;5677;48.488;13.436;2023-10-19T06:45:05;14.00;90.90
11239;DHT22;5677;48.488;13.436;2023-10-19T06:47:32;14.00;90.80
11239;DHT22;5677;48.488;13.436;2023-10-19T06:50:04;14.00;90.90
11239;DHT22;5677;48.488;13.436;2023-10-19T06:52:33;14.00;91.00
11239;DHT22;5677;48.488;13.436;2023-10-19T06:55:01;14.00;91.10
11239;DHT22;5677;48.488;13.436;2023-10-19T06:57:30;14.00;91.10
11239;DHT22;5677;48.488;13.436;2023-10-19T06:59:58;14.00;91.30
11239;DHT22;5677;48.488;13.436;2023-10-19T07:02:25;14.00;92.30
11239;DHT22;5677;48.488;13.436;2023-10-19T07:04:52;14.00;91.60
11239;DHT22;5677;48.488;13.436;2023-10-19T07:07:18;14.00;91.70
11239;DHT22;5677;48.488;13.436;2023-10-19T07:09:45;14.00;91.90
11239;DHT22;5677;48.488;13.436;2023-10-19T07:12:12;14.00;92.30
11239;DHT22;5677;48.488;13.436;2023-10-19T07:14:40;14.00;93.00
11239;DHT22;5677;48.488;13.436;2023-10-19T07:17:07;14.00;92.60
11239;DHT22;5677;48.488;13.436;2023-10-19T07:19:33;14.00;92.00
11239;DHT22;5677;48.488;13.436;2023-10-19T07:22:00;14.00;96.90
11239;DHT22;5677;48.488;13.436;2023-10-19T07:24:29;14.00;99.90
11239;DHT22;5677;48.488;13.436;2023-10-19T07:26:56;14.00;99.90
11239;DHT22;5677;48.488;13.436;2023-10-19T07:29:31;14.00;99.90
11239;DHT22;5677;48.488;13.436;2023-10-19T07:32:00;14.00;98.90
11239;DHT22;5677;48.488;13.436;2023-10-19T07:34:27;14.00;98.90
11239;DHT22;5677;48.488;13.436;2023-10-19T07:36:58;14.00;99.00
11239;DHT22;5677;48.488;13.436;2023-10-19T07:39:26;14.00;99.00
11239;DHT22;5677;48.488;13.436;2023-10-19T07:41:55;14.00;99.20
11239;DHT22;5677;48.488;13.436;2023-10-19T07:44:22;14.00;99.30
11239;DHT22;5677;48.488;13.436;2023-10-19T07:46:49;14.00;99.60
11239;DHT22;5677;48.488;13.436;2023-10-19T07:49:17;14.00;99.80
11239;DHT22;5677;48.488;13.436;2023-10-19T07:51:45;14.00;99.90
11239;DHT22;5677;48.488;13.436;2023-10-19T07:54:12;14.00;99.90
11239;DHT22;5677;48.488;13.436;2023-10-19T07:56:39;14.00;99.90
11239;DHT22;5677;48.488;13.436;2023-10-19T07:59:06;14.00;99.90
11239;DHT22;5677;48.488;13.436;2023-10-19T08:01:33;14.00;99.90
11239;DHT22;5677;48.488;13.436;2023-10-19T08:04:00;14.00;99.90
11239;DHT22;5677;48.488;13.436;2023-10-19T08:06:28;14.00;99.90
11239;DHT22;5677;48.488;13.436;2023-10-19T08:08:56;14.00;99.90
11239;DHT22;5677;48.488;13.436;2023-10-19T08:11:23;14.00;99.90
11239;DHT22;5677;48.488;13.436;2023-10-19T08:13:50;14.00;99.90
11239;DHT22;5677;48.488;13.436;2023-10-19T08:16:17;14.00;93.60
11239;DHT22;5677;48.488;13.436;2023-10-19T08:18:43;14.00;93.20
11239;DHT22;5677;48.488;13.436;2023-10-19T08:21:10;14.00;93.10
11239;DHT22;5677;48.488;13.436;2023-10-19T08:23:39;14.00;93.20
11239;DHT22;5677;48.488;13.436;2023-10-19T08:26:06;14.00;93.30
11239;DHT22;5677;48.488;13.436;2023-10-19T08:28:34;14.00;93.30
11239;DHT22;5677;48.488;13.436;2023-10-19T08:31:00;14.00;93.50
11239;DHT22;5677;48.488;13.436;2023-10-19T08:33:28;14.00;93.70
11239;DHT22;5677;48.488;13.436;2023-10-19T08:35:55;14.00;93.80
11239;DHT22;5677;48.488;13.436;2023-10-19T08:38:23;14.00;93.90
11239;DHT22;5677;48.488;13.436;2023-10-19T08:40:52;14.00;94.20
11239;DHT22;5677;48.488;13.436;2023-10-19T08:43:20;14.00;94.20
11239;DHT22;5677;48.488;13.436;2023-10-19T08:45:47;14.00;94.40
11239;DHT22;5677;48.488;13.436;2023-10-19T08:48:14;14.00;94.70
11239;DHT22;5677;48.488;13.436;2023-10-19T08:50:41;14.00;95.00
11239;DHT22;5677;48.488;13.436;2023-10-19T08:53:09;14.00;95.30
11239;DHT22;5677;48.488;13.436;2023-10-19T08:55:39;14.10;96.20
11239;DHT22;5677;48.488;13.436;2023-10-19T08:58:07;14.00;96.20
11239;DHT22;5677;48.488;13.436;2023-10-19T09:00:45;14.00;97.00
11239;DHT22;5677;48.488;13.436;2023-10-19T09:03:14;14.00;98.70
11239;DHT22;5677;48.488;13.436;2023-10-19T09:05:42;14.00;99.90
11239;DHT22;5677;48.488;13.436;2023-10-19T09:08:14;14.10;99.90
11239;DHT22;5677;48.488;13.436;2023-10-19T09:10:43;14.00;99.90
11239;DHT22;5677;48.488;13.436;2023-10-19T09:13:13;14.00;99.90
11239;DHT22;5677;48.488;13.436;2023-10-19T09:15:41;14.10;99.90
11239;DHT22;5677;48.488;13.436;2023-10-19T09:18:15;14.00;99.90
11239;DHT22;5677;48.488;13.436;2023-10-19T09:20:43;14.00;99.90
11239;DHT22;5677;48.488;13.436;2023-10-19T09:23:19;14.10;99.90
11239;DHT22;5677;48.488;13.436;2023-10-19T09:25:47;14.10;99.90
11239;DHT22;5677;48.488;13.436;2023-10-19T09:28:15;14.00;99.90
11239;DHT22;5677;48.488;13.436;2023-10-19T09:30:43;14.10;99.90
11239;DHT22;5677;48.488;13.436;2023-10-19T09:33:10;14.10;99.90
11239;DHT22;5677;48.488;13.436;2023-10-19T09:35:40;14.10;99.90
11239;DHT22;5677;48.488;13.436;2023-10-19T09:38:08;14.10;99.90
11239;DHT22;5677;48.488;13.436;2023-10-19T09:40:36;14.10;99.90
11239;DHT22;5677;48.488;13.436;2023-10-19T09:43:05;14.10;99.90
11239;DHT22;5677;48.488;13.436;2023-10-19T09:45:41;14.10;99.90
11239;DHT22;5677;48.488;13.436;2023-10-19T09:48:08;14.10;99.90
11239;DHT22;5677;48.488;13.436;2023-10-19T09:50:43;14.10;99.90
11239;DHT22;5677;48.488;13.436;2023-10-19T09:53:11;14.10;99.90
11239;DHT22;5677;48.488;13.436;2023-10-19T09:55:40;14.10;97.40
11239;DHT22;5677;48.488;13.436;2023-10-19T09:58:12;14.10;96.90
11239;DHT22;5677;48.488;13.436;2023-10-19T10:00:45;14.10;96.90
11239;DHT22;5677;48.488;13.436;2023-10-19T10:03:43;14.10;97.00
11239;DHT22;5677;48.488;13.436;2023-10-19T10:06:10;14.10;96.80
11239;DHT22;5677;48.488;13.436;2023-10-19T10:08:41;14.20;96.90
11239;DHT22;5677;48.488;13.436;2023-10-19T10:11:18;14.10;97.00
11239;DHT22;5677;48.488;13.436;2023-10-19T10:13:45;14.10;97.10
11239;DHT22;5677;48.488;13.436;2023-10-19T10:16:18;14.10;97.40
11239;DHT22;5677;48.488;13.436;2023-10-19T10:18:47;14.10;97.60
11239;DHT22;5677;48.488;13.436;2023-10-19T10:21:17;14.10;97.90
11239;DHT22;5677;48.488;13.436;2023-10-19T10:23:47;14.10;98.20
11239;DHT22;5677;48.488;13.436;2023-10-19T10:26:15;14.10;98.70
11239;DHT22;5677;48.488;13.436;2023-10-19T10:28:46;14.10;99.90
11239;DHT22;5677;48.488;13.436;2023-10-19T10:31:18;14.20;99.90
11239;DHT22;5677;48.488;13.436;2023-10-19T10:33:47;14.20;91.30
11239;DHT22;5677;48.488;13.436;2023-10-19T10:36:14;14.20;91.10
11239;DHT22;5677;48.488;13.436;2023-10-19T10:38:44;14.20;91.10
11239;DHT22;5677;48.488;13.436;2023-10-19T10:41:11;14.20;91.20
11239;DHT22;5677;48.488;13.436;2023-10-19T10:43:51;14.20;91.30
11239;DHT22;5677;48.488;13.436;2023-10-19T10:46:21;14.20;91.40
11239;DHT22;5677;48.488;13.436;2023-10-19T10:48:48;14.20;91.50
11239;DHT22;5677;48.488;13.436;2023-10-19T10:51:19;14.20;91.60
11239;DHT22;5677;48.488;13.436;2023-10-19T10:53:47;14.20;91.70
11239;DHT22;5677;48.488;13.436;2023-10-19T10:56:15;14.20;91.80
11239;DHT22;5677;48.488;13.436;2023-10-19T10:58:41;14.20;92.10
11239;DHT22;5677;48.488;13.436;2023-10-19T11:01:08;14.20;92.50
11239;DHT22;5677;48.488;13.436;2023-10-19T11:03:37;14.20;92.90
11239;DHT22;5677;48.488;13.436;2023-10-19T11:06:05;14.20;93.50
11239;DHT22;5677;48.488;13.436;2023-10-19T11:08:34;14.20;94.20
11239;DHT22;5677;48.488;13.436;2023-10-19T11:11:07;14.20;97.90
11239;DHT22;5677;48.488;13.436;2023-10-19T11:13:37;14.20;99.90
11239;DHT22;5677;48.488;13.436;2023-10-19T11:16:05;14.20;94.80
11239;DHT22;5677;48.488;13.436;2023-10-19T11:18:34;14.20;94.00
11239;DHT22;5677;48.488;13.436;2023-10-19T11:21:07;14.20;94.00
11239;DHT22;5677;48.488;13.436;2023-10-19T11:23:39;14.20;94.20
11239;DHT22;5677;48.488;13.436;2023-10-19T11:26:08;14.20;94.30
11239;DHT22;5677;48.488;13.436;2023-10-19T11:28:35;14.20;94.40
11239;DHT22;5677;48.488;13.436;2023-10-19T11:31:17;14.20;94.50
11239;DHT22;5677;48.488;13.436;2023-10-19T11:33:46;14.20;94.70
11239;DHT22;5677;48.488;13.436;2023-10-19T11:36:16;14.20;95.00
11239;DHT22;5677;48.488;13.436;2023-10-19T11:38:45;14.20;95.30
11239;DHT22;5677;48.488;13.436;2023-10-19T11:41:13;14.20;95.60
11239;DHT22;5677;48.488;13.436;2023-10-19T11:43:40;14.20;95.80
11239;DHT22;5677;48.488;13.436;2023-10-19T11:46:08;14.20;96.20
11239;DHT22;5677;48.488;13.436;2023-10-19T11:48:36;14.20;97.70
11239;DHT22;5677;48.488;13.436;2023-10-19T11:51:03;14.20;97.10
11239;DHT22;5677;48.488;13.436;2023-10-19T11:53:36;14.20;96.70
11239;DHT22;5677;48.488;13.436;2023-10-19T11:56:05;14.20;97.40
11239;DHT22;5677;48.488;13.436;2023-10-19T11:58:33;14.20;96.20
11239;DHT22;5677;48.488;13.436;2023-10-19T12:01:01;14.20;95.60
11239;DHT22;5677;48.488;13.436;2023-10-19T12:03:29;14.20;95.50
11239;DHT22;5677;48.488;13.436;2023-10-19T12:05:56;14.20;94.80
11239;DHT22;5677;48.488;13.436;2023-10-19T12:08:23;14.20;95.00
11239;DHT22;5677;48.488;13.436;2023-10-19T12:10:51;14.20;95.30
11239;DHT22;5677;48.488;13.436;2023-10-19T12:13:19;14.30;91.40
11239;DHT22;5677;48.488;13.436;2023-10-19T12:15:46;14.20;90.70
11239;DHT22;5677;48.488;13.436;2023-10-19T12:18:18;14.20;91.60
11239;DHT22;5677;48.488;13.436;2023-10-19T12:20:45;14.20;92.70
11239;DHT22;5677;48.488;13.436;2023-10-19T12:23:13;14.30;90.00
11239;DHT22;5677;48.488;13.436;2023-10-19T12:25:39;14.30;87.00
11239;DHT22;5677;48.488;13.436;2023-10-19T12:28:09;14.20;86.60
11239;DHT22;5677;48.488;13.436;2023-10-19T12:30:42;14.20;86.30
11239;DHT22;5677;48.488;13.436;2023-10-19T12:33:09;14.30;86.10
11239;DHT22;5677;48.488;13.436;2023-10-19T12:35:41;14.30;85.90
11239;DHT22;5677;48.488;13.436;2023-10-19T12:38:15;14.20;85.70
11239;DHT22;5677;48.488;13.436;2023-10-19T12:40:43;14.30;85.80
11239;DHT22;5677;48.488;13.436;2023-10-19T12:43:13;14.30;85.70
11239;DHT22;5677;48.488;13.436;2023-10-19T12:45:40;14.30;85.70
11239;DHT22;5677;48.488;13.436;2023-10-19T12:48:09;14.30;85.60
11239;DHT22;5677;48.488;13.436;2023-10-19T12:50:37;14.30;85.70
11239;DHT22;5677;48.488;13.436;2023-10-19T12:53:04;14.30;85.60
11239;DHT22;5677;48.488;13.436;2023-10-19T12:55:31;14.30;85.60
11239;DHT22;5677;48.488;13.436;2023-10-19T12:58:00;14.40;85.50
11239;DHT22;5677;48.488;13.436;2023-10-19T13:00:34;14.30;85.50
11239;DHT22;5677;48.488;13.436;2023-10-19T13:03:07;14.40;85.50
11239;DHT22;5677;48.488;13.436;2023-10-19T13:05:34;14.30;85.50
11239;DHT22;5677;48.488;13.436;2023-10-19T13:08:03;14.30;85.50
11239;DHT22;5677;48.488;13.436;2023-10-19T13:10:32;14.40;85.50
11239;DHT22;5677;48.488;13.436;2023-10-19T13:13:00;14.30;85.40
11239;DHT22;5677;48.488;13.436;2023-10-19T13:15:29;14.30;85.50
11239;DHT22;5677;48.488;13.436;2023-10-19T13:17:58;14.30;85.40
11239;DHT22;5677;48.488;13.436;2023-10-19T13:20:25;14.30;85.40
11239;DHT22;5677;48.488;13.436;2023-10-19T13:22:52;14.40;85.60
11239;DHT22;5677;48.488;13.436;2023-10-19T13:25:19;14.30;85.50
11239;DHT22;5677;48.488;13.436;2023-10-19T13:28:05;14.30;85.50
11239;DHT22;5677;48.488;13.436;2023-10-19T13:30:36;14.30;85.50
11239;DHT22;5677;48.488;13.436;2023-10-19T13:33:05;14.30;85.50
11239;DHT22;5677;48.488;13.436;2023-10-19T13:35:32;14.30;85.50
11239;DHT22;5677;48.488;13.436;2023-10-19T13:38:00;14.30;85.50
11239;DHT22;5677;48.488;13.436;2023-10-19T13:40:27;14.30;85.50
11239;DHT22;5677;48.488;13.436;2023-10-19T13:42:55;14.30;85.50
11239;DHT22;5677;48.488;13.436;2023-10-19T13:45:22;14.30;85.50
11239;DHT22;5677;48.488;13.436;2023-10-19T13:47:49;14.30;85.50
11239;DHT22;5677;48.488;13.436;2023-10-19T13:50:21;14.30;85.50
11239;DHT22;5677;48.488;13.436;2023-10-19T13:52:49;14.30;85.50
11239;DHT22;5677;48.488;13.436;2023-10-19T13:55:16;14.30;85.50
11239;DHT22;5677;48.488;13.436;2023-10-19T13:57:44;14.30;85.60
11239;DHT22;5677;48.488;13.436;2023-10-19T14:00:12;14.30;85.70
11239;DHT22;5677;48.488;13.436;2023-10-19T14:02:44;14.30;85.70
11239;DHT22;5677;48.488;13.436;2023-10-19T14:05:11;14.30;85.70
11239;DHT22;5677;48.488;13.436;2023-10-19T14:07:39;14.30;85.60
11239;DHT22;5677;48.488;13.436;2023-10-19T14:10:07;14.30;85.60
11239;DHT22;5677;48.488;13.436;2023-10-19T14:12:37;14.30;85.50
11239;DHT22;5677;48.488;13.436;2023-10-19T14:15:09;14.40;85.70
11239;DHT22;5677;48.488;13.436;2023-10-19T14:17:37;14.30;85.70
11239;DHT22;5677;48.488;13.436;2023-10-19T14:20:05;14.30;85.70
11239;DHT22;5677;48.488;13.436;2023-10-19T14:22:32;14.30;85.60
11239;DHT22;5677;48.488;13.436;2023-10-19T14:25:03;14.30;85.70
11239;DHT22;5677;48.488;13.436;2023-10-19T14:27:30;14.30;85.60
11239;DHT22;5677;48.488;13.436;2023-10-19T14:29:57;14.30;85.70
11239;DHT22;5677;48.488;13.436;2023-10-19T14:32:23;14.30;85.70
11239;DHT22;5677;48.488;13.436;2023-10-19T14:34:50;14.30;85.70
11239;DHT22;5677;48.488;13.436;2023-10-19T14:37:17;14.40;85.70
11239;DHT22;5677;48.488;13.436;2023-10-19T14:39:44;14.30;85.70
11239;DHT22;5677;48.488;13.436;2023-10-19T14:42:12;14.30;85.70
11239;DHT22;5677;48.488;13.436;2023-10-19T14:44:39;14.30;85.80
11239;DHT22;5677;48.488;13.436;2023-10-19T14:47:06;14.30;86.50
11239;DHT22;5677;48.488;13.436;2023-10-19T14:49:32;14.40;85.70
11239;DHT22;5677;48.488;13.436;2023-10-19T14:51:59;14.30;85.70
11239;DHT22;5677;48.488;13.436;2023-10-19T14:54:26;14.30;85.80
11239;DHT22;5677;48.488;13.436;2023-10-19T14:56:54;14.30;85.70
11239;DHT22;5677;48.488;13.436;2023-10-19T14:59:24;14.30;85.70
11239;DHT22;5677;48.488;13.436;2023-10-19T15:01:50;14.30;85.80
11239;DHT22;5677;48.488;13.436;2023-10-19T15:04:17;14.40;85.80
11239;DHT22;5677;48.488;13.436;2023-10-19T15:06:44;14.40;85.90
11239;DHT22;5677;48.488;13.436;2023-10-19T15:09:11;14.30;85.90
11239;DHT22;5677;48.488;13.436;2023-10-19T15:11:45;14.30;85.90
11239;DHT22;5677;48.488;13.436;2023-10-19T15:14:12;14.40;85.90
11239;DHT22;5677;48.488;13.436;2023-10-19T15:16:42;14.40;85.90
11239;DHT22;5677;48.488;13.436;2023-10-19T15:19:11;14.30;85.90
11239;DHT22;5677;48.488;13.436;2023-10-19T15:21:40;14.30;85.90
11239;DHT22;5677;48.488;13.436;2023-10-19T15:24:08;14.30;86.00
11239;DHT22;5677;48.488;13.436;2023-10-19T15:26:37;14.30;86.00
11239;DHT22;5677;48.488;13.436;2023-10-19T15:29:04;14.30;86.00
11239;DHT22;5677;48.488;13.436;2023-10-19T15:31:31;14.30;86.00
11239;DHT22;5677;48.488;13.436;2023-10-19T15:33:59;14.30;86.00
11239;DHT22;5677;48.488;13.436;2023-10-19T15:36:26;14.40;86.00
11239;DHT22;5677;48.488;13.436;2023-10-19T15:38:53;14.30;86.00
11239;DHT22;5677;48.488;13.436;2023-10-19T15:41:20;14.30;86.00